sensor_id;sensor_type;location;lat;lon;timestamp;pressure;altitude;pressure_sealevel;temperature;humidity
74079;BME280;62437;51.544;-3.276;2023-05-16T00:01:31;101963.53;;;3.88;67.69
74079;BME280;62437;51.544;-3.276;2023-05-16T00:03:56;101957.80;;;4.67;65.82
74079;BME280;62437;51.544;-3.276;2023-05-16T00:06:22;101955.29;;;4.23;65.75
74079;BME280;62437;51.544;-3.276;2023-05-16T00:08:48;101958.85;;;3.81;66.57
74079;BME280;62437;51.544;-3.276;2023-05-16T00:11:15;101960.27;;;4.18;66.00
74079;BME280;62437;51.544;-3.276;2023-05-16T00:13:39;101967.43;;;3.76;66.51
74079;BME280;62437;51.544;-3.276;2023-05-16T00:16:05;101968.54;;;3.88;67.83
74079;BME280;62437;51.544;-3.276;2023-05-16T00:18:31;101968.72;;;3.84;63.39
74079;BME280;62437;51.544;-3.276;2023-05-16T00:20:56;101969.85;;;4.28;64.88
74079;BME280;62437;51.544;-3.276;2023-05-16T00:23:22;101966.32;;;4.34;65.22
74079;BME280;62437;51.544;-3.276;2023-05-16T00:25:48;101970.00;;;4.41;65.58
74079;BME280;62437;51.544;-3.276;2023-05-16T00:28:14;101964.61;;;5.59;63.49
74079;BME280;62437;51.544;-3.276;2023-05-16T00:30:39;101971.71;;;4.29;63.58
74079;BME280;62437;51.544;-3.276;2023-05-16T00:33:05;101971.85;;;5.62;59.76
74079;BME280;62437;51.544;-3.276;2023-05-16T00:35:31;101974.44;;;5.67;59.52
74079;BME280;62437;51.544;-3.276;2023-05-16T00:37:57;101976.54;;;5.11;62.06
74079;BME280;62437;51.544;-3.276;2023-05-16T00:40:22;101980.64;;;5.36;58.08
74079;BME280;62437;51.544;-3.276;2023-05-16T00:42:48;101982.18;;;5.18;59.58
74079;BME280;62437;51.544;-3.276;2023-05-16T00:45:14;101980.40;;;5.55;58.26
74079;BME280;62437;51.544;-3.276;2023-05-16T00:47:39;101981.38;;;6.50;56.64
74079;BME280;62437;51.544;-3.276;2023-05-16T00:50:06;101982.61;;;5.13;59.05
74079;BME280;62437;51.544;-3.276;2023-05-16T00:52:31;101983.17;;;5.84;59.33
74079;BME280;62437;51.544;-3.276;2023-05-16T00:54:57;101986.89;;;4.24;61.89
74079;BME280;62437;51.544;-3.276;2023-05-16T00:57:22;101982.03;;;4.34;60.65
74079;BME280;62437;51.544;-3.276;2023-05-16T00:59:49;101985.15;;;3.76;62.67
74079;BME280;62437;51.544;-3.276;2023-05-16T01:02:14;101991.22;;;4.21;62.31
74079;BME280;62437;51.544;-3.276;2023-05-16T01:04:40;101988.81;;;3.76;62.55
74079;BME280;62437;51.544;-3.276;2023-05-16T01:07:05;101986.29;;;4.72;62.75
74079;BME280;62437;51.544;-3.276;2023-05-16T01:09:31;101985.31;;;5.85;60.04
74079;BME280;62437;51.544;-3.276;2023-05-16T01:12:12;101988.18;;;3.86;62.40
74079;BME280;62437;51.544;-3.276;2023-05-16T01:14:32;101987.83;;;4.21;63.10
74079;BME280;62437;51.544;-3.276;2023-05-16T01:16:53;101983.71;;;4.35;62.45
74079;BME280;62437;51.544;-3.276;2023-05-16T01:19:26;101977.78;;;5.36;59.81
74079;BME280;62437;51.544;-3.276;2023-05-16T01:21:47;101979.98;;;4.23;62.14
74079;BME280;62437;51.544;-3.276;2023-05-16T01:24:13;101976.17;;;4.59;62.62
74079;BME280;62437;51.544;-3.276;2023-05-16T01:26:32;101980.54;;;3.90;62.39
74079;BME280;62437;51.544;-3.276;2023-05-16T01:28:57;101983.29;;;4.29;63.48
74079;BME280;62437;51.544;-3.276;2023-05-16T01:31:23;101982.96;;;4.12;60.94
74079;BME280;62437;51.544;-3.276;2023-05-16T01:33:49;101985.26;;;3.92;62.95
74079;BME280;62437;51.544;-3.276;2023-05-16T01:36:21;101984.88;;;3.69;64.33
74079;BME280;62437;51.544;-3.276;2023-05-16T01:38:45;101984.84;;;3.63;64.57
74079;BME280;62437;51.544;-3.276;2023-05-16T01:41:12;101983.74;;;3.98;62.83
74079;BME280;62437;51.544;-3.276;2023-05-16T01:43:34;101986.20;;;3.88;62.25
74079;BME280;62437;51.544;-3.276;2023-05-16T01:46:02;101981.67;;;3.79;64.44
74079;BME280;62437;51.544;-3.276;2023-05-16T01:48:29;101978.36;;;3.84;65.17
74079;BME280;62437;51.544;-3.276;2023-05-16T01:50:53;101973.09;;;4.01;62.97
74079;BME280;62437;51.544;-3.276;2023-05-16T01:53:19;101971.36;;;3.76;63.99
74079;BME280;62437;51.544;-3.276;2023-05-16T01:55:44;101973.10;;;3.42;64.65
74079;BME280;62437;51.544;-3.276;2023-05-16T01:58:07;101979.91;;;3.49;65.68
74079;BME280;62437;51.544;-3.276;2023-05-16T02:00:32;101983.48;;;3.38;66.67
74079;BME280;62437;51.544;-3.276;2023-05-16T02:02:58;101980.48;;;4.35;63.75
74079;BME280;62437;51.544;-3.276;2023-05-16T02:05:23;101983.21;;;3.83;63.81
74079;BME280;62437;51.544;-3.276;2023-05-16T02:07:49;101984.40;;;3.45;65.65
74079;BME280;62437;51.544;-3.276;2023-05-16T02:10:15;101980.40;;;3.53;65.15
74079;BME280;62437;51.544;-3.276;2023-05-16T02:12:40;101980.17;;;3.71;65.38
74079;BME280;62437;51.544;-3.276;2023-05-16T02:15:07;101979.77;;;3.43;66.23
74079;BME280;62437;51.544;-3.276;2023-05-16T02:17:32;101980.95;;;3.25;66.28
74079;BME280;62437;51.544;-3.276;2023-05-16T02:19:58;101983.06;;;2.92;66.76
74079;BME280;62437;51.544;-3.276;2023-05-16T02:22:23;101984.20;;;2.81;67.44
74079;BME280;62437;51.544;-3.276;2023-05-16T02:24:49;101988.91;;;2.61;67.29
74079;BME280;62437;51.544;-3.276;2023-05-16T02:27:15;101987.87;;;2.84;67.65
74079;BME280;62437;51.544;-3.276;2023-05-16T02:29:41;101985.24;;;3.01;67.56
74079;BME280;62437;51.544;-3.276;2023-05-16T02:32:07;101984.64;;;2.70;67.36
74079;BME280;62437;51.544;-3.276;2023-05-16T02:34:32;101989.11;;;2.89;66.78
74079;BME280;62437;51.544;-3.276;2023-05-16T02:36:58;101990.18;;;2.71;68.32
74079;BME280;62437;51.544;-3.276;2023-05-16T02:39:24;101989.99;;;3.02;67.06
74079;BME280;62437;51.544;-3.276;2023-05-16T02:41:50;101989.54;;;2.95;67.34
74079;BME280;62437;51.544;-3.276;2023-05-16T02:44:15;101989.54;;;2.61;68.00
74079;BME280;62437;51.544;-3.276;2023-05-16T02:46:41;101984.80;;;2.71;67.27
74079;BME280;62437;51.544;-3.276;2023-05-16T02:49:07;101987.61;;;2.79;67.44
74079;BME280;62437;51.544;-3.276;2023-05-16T02:51:33;101992.64;;;2.93;67.87
74079;BME280;62437;51.544;-3.276;2023-05-16T02:53:58;101992.54;;;3.27;66.83
74079;BME280;62437;51.544;-3.276;2023-05-16T02:56:24;101995.05;;;2.68;68.39
74079;BME280;62437;51.544;-3.276;2023-05-16T02:58:50;101998.77;;;2.61;68.39
74079;BME280;62437;51.544;-3.276;2023-05-16T03:01:16;101996.97;;;2.79;67.33
74079;BME280;62437;51.544;-3.276;2023-05-16T03:03:42;101998.45;;;2.62;67.82
74079;BME280;62437;51.544;-3.276;2023-05-16T03:06:07;101993.94;;;3.33;68.34
74079;BME280;62437;51.544;-3.276;2023-05-16T03:08:33;101991.71;;;3.82;64.96
74079;BME280;62437;51.544;-3.276;2023-05-16T03:10:59;101995.86;;;3.09;67.13
74079;BME280;62437;51.544;-3.276;2023-05-16T03:13:24;101993.82;;;3.58;67.09
74079;BME280;62437;51.544;-3.276;2023-05-16T03:15:50;101998.79;;;2.76;67.48
74079;BME280;62437;51.544;-3.276;2023-05-16T03:18:16;102000.17;;;2.72;68.51
74079;BME280;62437;51.544;-3.276;2023-05-16T03:20:42;101993.84;;;2.89;68.31
74079;BME280;62437;51.544;-3.276;2023-05-16T03:23:07;101997.83;;;2.88;68.75
74079;BME280;62437;51.544;-3.276;2023-05-16T03:25:33;101995.43;;;2.81;68.81
74079;BME280;62437;51.544;-3.276;2023-05-16T03:27:59;101990.26;;;3.20;69.50
74079;BME280;62437;51.544;-3.276;2023-05-16T03:30:25;101995.72;;;2.78;68.90
74079;BME280;62437;51.544;-3.276;2023-05-16T03:32:51;101989.42;;;3.16;67.90
74079;BME280;62437;51.544;-3.276;2023-05-16T03:35:16;101990.12;;;3.16;67.52
74079;BME280;62437;51.544;-3.276;2023-05-16T03:37:42;101990.24;;;3.05;67.11
74079;BME280;62437;51.544;-3.276;2023-05-16T03:40:08;101988.82;;;2.97;67.66
74079;BME280;62437;51.544;-3.276;2023-05-16T03:42:33;101988.35;;;2.87;68.44
74079;BME280;62437;51.544;-3.276;2023-05-16T03:44:59;101991.21;;;2.72;68.90
74079;BME280;62437;51.544;-3.276;2023-05-16T03:47:25;101999.08;;;2.70;69.74
74079;BME280;62437;51.544;-3.276;2023-05-16T03:49:51;101994.12;;;3.30;67.33
74079;BME280;62437;51.544;-3.276;2023-05-16T03:52:16;101992.15;;;2.71;68.64
74079;BME280;62437;51.544;-3.276;2023-05-16T03:54:42;101991.29;;;2.60;68.42
74079;BME280;62437;51.544;-3.276;2023-05-16T03:57:08;101993.02;;;2.46;69.78
74079;BME280;62437;51.544;-3.276;2023-05-16T03:59:34;101999.04;;;2.41;69.09
74079;BME280;62437;51.544;-3.276;2023-05-16T04:01:59;101998.73;;;2.42;69.29
74079;BME280;62437;51.544;-3.276;2023-05-16T04:04:25;101998.49;;;2.36;69.89
74079;BME280;62437;51.544;-3.276;2023-05-16T04:06:51;102002.32;;;2.32;69.76
74079;BME280;62437;51.544;-3.276;2023-05-16T04:09:17;102002.75;;;2.27;70.25
74079;BME280;62437;51.544;-3.276;2023-05-16T04:11:43;102002.55;;;2.23;69.86
74079;BME280;62437;51.544;-3.276;2023-05-16T04:14:08;102010.08;;;1.97;70.14
74079;BME280;62437;51.544;-3.276;2023-05-16T04:16:34;102009.35;;;2.03;71.18
74079;BME280;62437;51.544;-3.276;2023-05-16T04:19:00;102011.79;;;1.64;71.57
74079;BME280;62437;51.544;-3.276;2023-05-16T04:21:26;102011.20;;;2.01;71.71
74079;BME280;62437;51.544;-3.276;2023-05-16T04:23:51;102009.75;;;2.13;72.12
74079;BME280;62437;51.544;-3.276;2023-05-16T04:26:17;102010.54;;;2.00;71.53
74079;BME280;62437;51.544;-3.276;2023-05-16T04:28:43;102008.83;;;2.05;71.21
74079;BME280;62437;51.544;-3.276;2023-05-16T04:31:09;102007.19;;;1.91;71.43
74079;BME280;62437;51.544;-3.276;2023-05-16T04:33:34;102011.18;;;2.14;71.50
74079;BME280;62437;51.544;-3.276;2023-05-16T04:36:00;102011.86;;;1.80;71.23
74079;BME280;62437;51.544;-3.276;2023-05-16T04:38:26;102014.31;;;2.06;71.66
74079;BME280;62437;51.544;-3.276;2023-05-16T04:40:52;102015.41;;;2.24;71.85
74079;BME280;62437;51.544;-3.276;2023-05-16T04:43:18;102015.32;;;2.19;71.87
74079;BME280;62437;51.544;-3.276;2023-05-16T04:45:43;102017.00;;;2.00;71.98
74079;BME280;62437;51.544;-3.276;2023-05-16T04:48:09;102017.30;;;2.18;71.90
74079;BME280;62437;51.544;-3.276;2023-05-16T04:50:35;102014.55;;;1.85;71.36
74079;BME280;62437;51.544;-3.276;2023-05-16T04:53:01;102017.31;;;2.05;72.26
74079;BME280;62437;51.544;-3.276;2023-05-16T04:55:26;102016.04;;;2.21;71.53
74079;BME280;62437;51.544;-3.276;2023-05-16T04:57:52;102015.38;;;2.33;71.25
74079;BME280;62437;51.544;-3.276;2023-05-16T05:00:18;102014.23;;;2.12;71.26
74079;BME280;62437;51.544;-3.276;2023-05-16T05:02:44;102013.84;;;2.77;70.80
74079;BME280;62437;51.544;-3.276;2023-05-16T05:05:10;102014.68;;;2.77;70.46
74079;BME280;62437;51.544;-3.276;2023-05-16T05:07:35;102018.52;;;2.63;70.46
74079;BME280;62437;51.544;-3.276;2023-05-16T05:10:01;102023.52;;;2.68;70.66
74079;BME280;62437;51.544;-3.276;2023-05-16T05:12:27;102027.16;;;2.67;71.12
74079;BME280;62437;51.544;-3.276;2023-05-16T05:14:53;102028.40;;;2.39;71.45
74079;BME280;62437;51.544;-3.276;2023-05-16T05:17:19;102027.30;;;2.37;70.81
74079;BME280;62437;51.544;-3.276;2023-05-16T05:19:44;102028.86;;;2.41;70.71
74079;BME280;62437;51.544;-3.276;2023-05-16T05:22:10;102026.45;;;2.66;70.94
74079;BME280;62437;51.544;-3.276;2023-05-16T05:24:36;102031.91;;;2.70;70.14
74079;BME280;62437;51.544;-3.276;2023-05-16T05:27:01;102034.88;;;2.95;70.15
74079;BME280;62437;51.544;-3.276;2023-05-16T05:29:27;102039.83;;;3.33;70.12
74079;BME280;62437;51.544;-3.276;2023-05-16T05:31:53;102040.95;;;3.08;69.70
74079;BME280;62437;51.544;-3.276;2023-05-16T05:34:18;102042.66;;;3.48;68.94
74079;BME280;62437;51.544;-3.276;2023-05-16T05:36:44;102050.27;;;3.17;68.36
74079;BME280;62437;51.544;-3.276;2023-05-16T05:39:10;102044.75;;;3.30;68.33
74079;BME280;62437;51.544;-3.276;2023-05-16T05:41:36;102048.77;;;3.23;68.55
74079;BME280;62437;51.544;-3.276;2023-05-16T05:44:01;102050.42;;;3.22;69.20
74079;BME280;62437;51.544;-3.276;2023-05-16T05:46:27;102048.02;;;3.18;70.61
74079;BME280;62437;51.544;-3.276;2023-05-16T05:48:53;102047.83;;;3.26;70.77
74079;BME280;62437;51.544;-3.276;2023-05-16T05:51:19;102047.54;;;3.34;70.99
74079;BME280;62437;51.544;-3.276;2023-05-16T05:53:45;102048.06;;;3.70;68.54
74079;BME280;62437;51.544;-3.276;2023-05-16T05:56:10;102052.21;;;3.98;67.07
74079;BME280;62437;51.544;-3.276;2023-05-16T05:58:37;102055.36;;;4.16;66.39
74079;BME280;62437;51.544;-3.276;2023-05-16T06:01:02;102056.93;;;4.41;65.98
74079;BME280;62437;51.544;-3.276;2023-05-16T06:03:27;102061.13;;;3.95;66.77
74079;BME280;62437;51.544;-3.276;2023-05-16T06:05:53;102062.00;;;3.70;68.24
74079;BME280;62437;51.544;-3.276;2023-05-16T06:08:19;102061.72;;;3.92;67.35
74079;BME280;62437;51.544;-3.276;2023-05-16T06:10:45;102063.42;;;3.59;69.30
74079;BME280;62437;51.544;-3.276;2023-05-16T06:13:10;102062.95;;;3.84;68.26
74079;BME280;62437;51.544;-3.276;2023-05-16T06:15:36;102063.19;;;4.21;68.49
74079;BME280;62437;51.544;-3.276;2023-05-16T06:18:02;102069.47;;;3.88;68.13
74079;BME280;62437;51.544;-3.276;2023-05-16T06:20:28;102070.63;;;4.26;68.43
74079;BME280;62437;51.544;-3.276;2023-05-16T06:22:53;102068.97;;;4.52;67.16
74079;BME280;62437;51.544;-3.276;2023-05-16T06:25:19;102063.38;;;4.99;67.59
74079;BME280;62437;51.544;-3.276;2023-05-16T06:27:45;102060.99;;;5.58;66.05
74079;BME280;62437;51.544;-3.276;2023-05-16T06:30:11;102061.80;;;5.11;67.31
74079;BME280;62437;51.544;-3.276;2023-05-16T06:32:36;102062.23;;;4.78;68.19
74079;BME280;62437;51.544;-3.276;2023-05-16T06:35:03;102067.17;;;5.06;66.06
74079;BME280;62437;51.544;-3.276;2023-05-16T06:37:28;102063.76;;;5.52;65.45
74079;BME280;62437;51.544;-3.276;2023-05-16T06:39:54;102066.26;;;5.77;65.04
74079;BME280;62437;51.544;-3.276;2023-05-16T06:42:19;102065.42;;;5.83;64.69
74079;BME280;62437;51.544;-3.276;2023-05-16T06:44:45;102065.90;;;5.97;63.92
74079;BME280;62437;51.544;-3.276;2023-05-16T06:47:11;102066.75;;;5.56;64.88
74079;BME280;62437;51.544;-3.276;2023-05-16T06:49:36;102069.41;;;5.36;65.22
74079;BME280;62437;51.544;-3.276;2023-05-16T06:52:03;102070.27;;;6.03;64.65
74079;BME280;62437;51.544;-3.276;2023-05-16T06:54:28;102069.75;;;6.04;64.81
74079;BME280;62437;51.544;-3.276;2023-05-16T06:56:53;102071.39;;;6.45;62.68
74079;BME280;62437;51.544;-3.276;2023-05-16T06:59:19;102072.50;;;6.65;62.65
74079;BME280;62437;51.544;-3.276;2023-05-16T07:01:45;102068.65;;;6.34;62.77
74079;BME280;62437;51.544;-3.276;2023-05-16T07:04:11;102073.56;;;6.83;61.55
74079;BME280;62437;51.544;-3.276;2023-05-16T07:06:36;102071.87;;;6.68;61.94
74079;BME280;62437;51.544;-3.276;2023-05-16T07:09:02;102070.20;;;6.64;64.40
74079;BME280;62437;51.544;-3.276;2023-05-16T07:11:28;102069.17;;;6.91;62.48
74079;BME280;62437;51.544;-3.276;2023-05-16T07:13:53;102070.79;;;6.90;61.17
74079;BME280;62437;51.544;-3.276;2023-05-16T07:16:19;102068.09;;;7.07;62.94
74079;BME280;62437;51.544;-3.276;2023-05-16T07:18:45;102069.88;;;6.91;62.53
74079;BME280;62437;51.544;-3.276;2023-05-16T07:21:10;102075.84;;;7.40;59.58
74079;BME280;62437;51.544;-3.276;2023-05-16T07:23:36;102071.49;;;7.99;58.61
74079;BME280;62437;51.544;-3.276;2023-05-16T07:26:02;102072.26;;;7.52;58.28
74079;BME280;62437;51.544;-3.276;2023-05-16T07:28:27;102074.94;;;8.21;58.19
74079;BME280;62437;51.544;-3.276;2023-05-16T07:30:53;102074.34;;;8.99;56.99
74079;BME280;62437;51.544;-3.276;2023-05-16T07:33:19;102073.57;;;7.45;56.32
74079;BME280;62437;51.544;-3.276;2023-05-16T07:35:44;102079.00;;;7.41;57.93
74079;BME280;62437;51.544;-3.276;2023-05-16T07:38:10;102075.04;;;8.24;57.34
74079;BME280;62437;51.544;-3.276;2023-05-16T07:40:36;102077.20;;;9.80;57.26
74079;BME280;62437;51.544;-3.276;2023-05-16T07:43:01;102079.13;;;8.72;57.41
74079;BME280;62437;51.544;-3.276;2023-05-16T07:45:27;102080.00;;;8.48;55.85
74079;BME280;62437;51.544;-3.276;2023-05-16T07:47:53;102081.25;;;8.82;54.49
74079;BME280;62437;51.544;-3.276;2023-05-16T07:50:18;102078.63;;;8.75;55.36
74079;BME280;62437;51.544;-3.276;2023-05-16T07:52:44;102074.82;;;9.41;53.09
74079;BME280;62437;51.544;-3.276;2023-05-16T07:55:10;102071.99;;;9.83;50.87
74079;BME280;62437;51.544;-3.276;2023-05-16T07:57:35;102074.26;;;9.14;52.20
74079;BME280;62437;51.544;-3.276;2023-05-16T08:00:01;102073.83;;;9.30;52.26
74079;BME280;62437;51.544;-3.276;2023-05-16T08:02:27;102072.36;;;9.31;52.09
74079;BME280;62437;51.544;-3.276;2023-05-16T08:04:52;102075.71;;;11.40;51.68
74079;BME280;62437;51.544;-3.276;2023-05-16T08:07:18;102076.31;;;9.56;51.31
74079;BME280;62437;51.544;-3.276;2023-05-16T08:09:44;102077.62;;;10.51;52.89
74079;BME280;62437;51.544;-3.276;2023-05-16T08:12:10;102089.99;;;8.94;50.90
74079;BME280;62437;51.544;-3.276;2023-05-16T08:14:35;102085.48;;;8.92;53.82
74079;BME280;62437;51.544;-3.276;2023-05-16T08:17:01;102087.15;;;9.34;54.68
74079;BME280;62437;51.544;-3.276;2023-05-16T08:19:26;102085.96;;;9.92;54.82
74079;BME280;62437;51.544;-3.276;2023-05-16T08:21:52;102087.26;;;9.28;53.64
74079;BME280;62437;51.544;-3.276;2023-05-16T08:24:18;102084.85;;;10.16;51.84
74079;BME280;62437;51.544;-3.276;2023-05-16T08:26:43;102087.91;;;10.20;49.87
74079;BME280;62437;51.544;-3.276;2023-05-16T08:29:09;102087.72;;;10.10;50.83
74079;BME280;62437;51.544;-3.276;2023-05-16T08:31:35;102086.60;;;10.50;48.31
74079;BME280;62437;51.544;-3.276;2023-05-16T08:34:00;102088.57;;;10.40;48.83
74079;BME280;62437;51.544;-3.276;2023-05-16T08:36:26;102082.96;;;9.90;51.75
74079;BME280;62437;51.544;-3.276;2023-05-16T08:38:51;102087.59;;;9.37;50.52
74079;BME280;62437;51.544;-3.276;2023-05-16T08:41:17;102082.62;;;9.88;55.40
74079;BME280;62437;51.544;-3.276;2023-05-16T08:43:43;102078.76;;;9.71;48.75
74079;BME280;62437;51.544;-3.276;2023-05-16T08:46:09;102076.62;;;10.35;49.28
74079;BME280;62437;51.544;-3.276;2023-05-16T08:48:35;102083.35;;;10.85;51.44
74079;BME280;62437;51.544;-3.276;2023-05-16T08:51:00;102077.71;;;10.05;51.15
74079;BME280;62437;51.544;-3.276;2023-05-16T08:53:30;102073.57;;;9.99;48.40
74079;BME280;62437;51.544;-3.276;2023-05-16T08:55:52;102074.09;;;10.02;48.60
74079;BME280;62437;51.544;-3.276;2023-05-16T08:58:17;102078.64;;;11.40;53.83
74079;BME280;62437;51.544;-3.276;2023-05-16T09:00:43;102069.93;;;11.32;48.69
74079;BME280;62437;51.544;-3.276;2023-05-16T09:03:08;102059.08;;;12.15;48.70
74079;BME280;62437;51.544;-3.276;2023-05-16T09:05:34;102067.12;;;11.20;47.17
74079;BME280;62437;51.544;-3.276;2023-05-16T09:07:59;102066.94;;;11.39;46.67
74079;BME280;62437;51.544;-3.276;2023-05-16T09:10:25;102068.33;;;10.95;46.19
74079;BME280;62437;51.544;-3.276;2023-05-16T09:12:50;102066.18;;;10.35;47.76
74079;BME280;62437;51.544;-3.276;2023-05-16T09:15:17;102065.44;;;9.59;47.45
74079;BME280;62437;51.544;-3.276;2023-05-16T09:17:43;102072.43;;;9.67;47.27
74079;BME280;62437;51.544;-3.276;2023-05-16T09:20:08;102076.50;;;10.03;49.80
74079;BME280;62437;51.544;-3.276;2023-05-16T09:22:33;102075.87;;;10.22;48.47
74079;BME280;62437;51.544;-3.276;2023-05-16T09:24:59;102074.47;;;10.56;46.05
74079;BME280;62437;51.544;-3.276;2023-05-16T09:27:24;102076.59;;;10.38;47.75
74079;BME280;62437;51.544;-3.276;2023-05-16T09:29:50;102079.21;;;11.25;50.03
74079;BME280;62437;51.544;-3.276;2023-05-16T09:32:17;102079.42;;;10.62;46.12
74079;BME280;62437;51.544;-3.276;2023-05-16T09:34:43;102081.47;;;10.69;47.43
74079;BME280;62437;51.544;-3.276;2023-05-16T09:37:09;102077.76;;;10.68;48.54
74079;BME280;62437;51.544;-3.276;2023-05-16T09:39:32;102078.64;;;10.56;46.60
74079;BME280;62437;51.544;-3.276;2023-05-16T09:41:58;102077.80;;;11.25;46.27
74079;BME280;62437;51.544;-3.276;2023-05-16T09:44:24;102075.65;;;11.02;50.63
74079;BME280;62437;51.544;-3.276;2023-05-16T09:46:49;102071.18;;;11.73;50.72
74079;BME280;62437;51.544;-3.276;2023-05-16T09:49:15;102074.54;;;10.19;46.93
74079;BME280;62437;51.544;-3.276;2023-05-16T09:51:40;102074.58;;;10.50;46.92
74079;BME280;62437;51.544;-3.276;2023-05-16T09:54:07;102077.66;;;10.50;47.05
74079;BME280;62437;51.544;-3.276;2023-05-16T09:56:32;102077.06;;;11.23;48.80
74079;BME280;62437;51.544;-3.276;2023-05-16T09:58:57;102079.77;;;10.79;45.78
74079;BME280;62437;51.544;-3.276;2023-05-16T10:01:23;102073.11;;;10.26;47.23
74079;BME280;62437;51.544;-3.276;2023-05-16T10:03:50;102073.97;;;10.64;46.58
74079;BME280;62437;51.544;-3.276;2023-05-16T10:06:14;102068.26;;;11.77;46.24
74079;BME280;62437;51.544;-3.276;2023-05-16T10:08:42;102066.05;;;11.91;44.84
74079;BME280;62437;51.544;-3.276;2023-05-16T10:11:05;102063.10;;;12.56;46.05
74079;BME280;62437;51.544;-3.276;2023-05-16T10:13:36;102058.03;;;12.76;46.56
74079;BME280;62437;51.544;-3.276;2023-05-16T10:15:58;102063.77;;;12.50;43.71
74079;BME280;62437;51.544;-3.276;2023-05-16T10:18:28;102063.21;;;13.08;45.42
74079;BME280;62437;51.544;-3.276;2023-05-16T10:20:52;102063.48;;;12.71;43.31
74079;BME280;62437;51.544;-3.276;2023-05-16T10:23:18;102059.76;;;13.02;44.14
74079;BME280;62437;51.544;-3.276;2023-05-16T10:25:40;102066.59;;;11.52;42.70
74079;BME280;62437;51.544;-3.276;2023-05-16T10:28:06;102074.21;;;11.48;49.02
74079;BME280;62437;51.544;-3.276;2023-05-16T10:30:32;102062.60;;;12.25;44.41
74079;BME280;62437;51.544;-3.276;2023-05-16T10:32:56;102067.87;;;12.30;40.68
74079;BME280;62437;51.544;-3.276;2023-05-16T10:35:22;102063.53;;;12.01;42.82
74079;BME280;62437;51.544;-3.276;2023-05-16T10:37:48;102068.02;;;11.57;43.16
74079;BME280;62437;51.544;-3.276;2023-05-16T10:40:13;102065.69;;;12.86;43.03
74079;BME280;62437;51.544;-3.276;2023-05-16T10:42:39;102064.92;;;12.35;43.56
74079;BME280;62437;51.544;-3.276;2023-05-16T10:45:15;102067.12;;;11.29;42.40
74079;BME280;62437;51.544;-3.276;2023-05-16T10:47:30;102060.73;;;11.80;44.11
74079;BME280;62437;51.544;-3.276;2023-05-16T10:49:55;102062.55;;;11.42;44.37
74079;BME280;62437;51.544;-3.276;2023-05-16T10:54:51;102050.05;;;12.30;46.46
74079;BME280;62437;51.544;-3.276;2023-05-16T10:57:18;102056.30;;;11.69;45.63
74079;BME280;62437;51.544;-3.276;2023-05-16T10:59:42;102053.55;;;12.32;44.62
74079;BME280;62437;51.544;-3.276;2023-05-16T11:06:58;102045.81;;;13.75;41.86
74079;BME280;62437;51.544;-3.276;2023-05-16T11:09:22;102051.04;;;12.33;43.42
74079;BME280;62437;51.544;-3.276;2023-05-16T11:11:51;102051.17;;;12.76;42.74
74079;BME280;62437;51.544;-3.276;2023-05-16T11:14:18;102050.57;;;12.11;41.64
74079;BME280;62437;51.544;-3.276;2023-05-16T11:16:38;102047.83;;;13.01;44.11
74079;BME280;62437;51.544;-3.276;2023-05-16T11:19:04;102051.81;;;12.20;43.51
74079;BME280;62437;51.544;-3.276;2023-05-16T11:26:19;102037.90;;;12.84;42.46
74079;BME280;62437;51.544;-3.276;2023-05-16T11:28:49;102030.25;;;13.75;42.14
74079;BME280;62437;51.544;-3.276;2023-05-16T11:31:11;102034.90;;;13.02;40.85
74079;BME280;62437;51.544;-3.276;2023-05-16T11:33:38;102041.17;;;13.14;41.28
74079;BME280;62437;51.544;-3.276;2023-05-16T11:36:03;102042.49;;;11.50;44.74
74079;BME280;62437;51.544;-3.276;2023-05-16T11:38:29;102039.28;;;11.69;44.39
74079;BME280;62437;51.544;-3.276;2023-05-16T11:40:53;102032.56;;;12.18;43.58
74079;BME280;62437;51.544;-3.276;2023-05-16T11:43:19;102023.25;;;12.86;42.81
74079;BME280;62437;51.544;-3.276;2023-05-16T11:45:44;102017.30;;;13.24;42.20
74079;BME280;62437;51.544;-3.276;2023-05-16T11:48:10;102025.35;;;11.66;44.64
74079;BME280;62437;51.544;-3.276;2023-05-16T11:50:37;102024.17;;;11.94;46.58
74079;BME280;62437;51.544;-3.276;2023-05-16T11:53:01;102024.96;;;12.00;47.34
74079;BME280;62437;51.544;-3.276;2023-05-16T11:55:28;102027.09;;;12.02;44.45
74079;BME280;62437;51.544;-3.276;2023-05-16T11:57:53;102023.87;;;13.34;46.71
74079;BME280;62437;51.544;-3.276;2023-05-16T12:00:20;102024.27;;;12.90;44.45
74079;BME280;62437;51.544;-3.276;2023-05-16T12:02:44;102027.82;;;12.55;40.90
74079;BME280;62437;51.544;-3.276;2023-05-16T12:05:10;102021.13;;;13.60;40.46
74079;BME280;62437;51.544;-3.276;2023-05-16T12:07:35;102020.48;;;13.53;40.72
74079;BME280;62437;51.544;-3.276;2023-05-16T12:10:05;102015.03;;;13.44;40.20
74079;BME280;62437;51.544;-3.276;2023-05-16T12:12:27;102015.78;;;13.86;45.31
74079;BME280;62437;51.544;-3.276;2023-05-16T12:14:51;102013.67;;;13.86;43.24
74079;BME280;62437;51.544;-3.276;2023-05-16T12:17:17;102014.88;;;13.37;41.45
74079;BME280;62437;51.544;-3.276;2023-05-16T12:19:43;102011.50;;;12.89;40.95
74079;BME280;62437;51.544;-3.276;2023-05-16T12:22:15;102013.07;;;13.98;42.61
74079;BME280;62437;51.544;-3.276;2023-05-16T12:24:34;102004.61;;;13.03;42.03
74079;BME280;62437;51.544;-3.276;2023-05-16T12:26:59;102003.84;;;14.60;41.68
74079;BME280;62437;51.544;-3.276;2023-05-16T12:29:25;102009.99;;;13.56;39.59
74079;BME280;62437;51.544;-3.276;2023-05-16T12:31:52;102002.30;;;14.15;41.48
74079;BME280;62437;51.544;-3.276;2023-05-16T12:34:18;102006.94;;;12.64;41.01
74079;BME280;62437;51.544;-3.276;2023-05-16T12:36:42;102005.84;;;12.62;42.43
74079;BME280;62437;51.544;-3.276;2023-05-16T12:39:11;102004.48;;;12.42;45.44
74079;BME280;62437;51.544;-3.276;2023-05-16T12:41:39;102005.14;;;12.10;44.74
74079;BME280;62437;51.544;-3.276;2023-05-16T12:44:14;102007.00;;;12.57;42.84
74079;BME280;62437;51.544;-3.276;2023-05-16T12:46:24;102007.06;;;12.77;46.44
74079;BME280;62437;51.544;-3.276;2023-05-16T12:51:17;102006.49;;;11.67;44.14
74079;BME280;62437;51.544;-3.276;2023-05-16T12:53:42;102004.42;;;12.38;43.53